Time;durP1;ratioP1;P1;durP2;ratioP2;P2;SDS_P1;SDS_P2;PMS_P1;PMS_P2;Temp;Humidity;BMP_temperature;BMP_pressure;BME280_temperature;BME280_humidity;BME280_pressure;Samples;Min_cycle;Max_cycle;Signal;HPM_P1;HPM_P2
2022/11/12 00:00:29;;;;;;;5.55;3.10;;;10.40;99.90;;;;;;5120952;28;20027;-71
2022/11/12 00:02:54;;;;;;;3.90;2.80;;;10.40;99.90;;;;;;5120490;28;20391;-71
2022/11/12 00:05:20;;;;;;;3.83;2.80;;;10.40;99.90;;;;;;5102578;28;20027;-71
2022/11/12 00:07:46;;;;;;;3.10;2.67;;;10.40;99.90;;;;;;5085265;28;20499;-71
2022/11/12 00:10:11;;;;;;;3.17;2.72;;;10.40;99.90;;;;;;5100391;28;20024;-71
2022/11/12 00:12:37;;;;;;;3.40;2.75;;;10.40;99.90;;;;;;5100393;28;20574;-71
2022/11/12 00:15:03;;;;;;;4.35;3.20;;;10.40;99.90;;;;;;5100281;28;20043;-71
2022/11/12 00:17:28;;;;;;;3.35;2.83;;;10.40;99.90;;;;;;5100125;28;20099;-71
2022/11/12 00:19:54;;;;;;;3.33;2.53;;;10.40;99.90;;;;;;5099397;28;20024;-71
2022/11/12 00:22:21;;;;;;;3.53;2.55;;;10.40;99.90;;;;;;5100293;28;20028;-71
2022/11/12 00:24:46;;;;;;;3.45;2.90;;;10.40;99.90;;;;;;5100157;28;20605;-71
2022/11/12 00:27:12;;;;;;;3.10;2.80;;;10.40;99.90;;;;;;5100144;28;20049;-71
2022/11/12 00:29:38;;;;;;;3.45;2.83;;;10.40;99.90;;;;;;5099774;28;20020;-71
2022/11/12 00:32:05;;;;;;;4.30;3.03;;;10.40;99.90;;;;;;5095498;28;20093;-71
2022/11/12 00:34:32;;;;;;;3.90;3.10;;;10.40;99.90;;;;;;5120369;28;20016;-71
2022/11/12 00:36:58;;;;;;;3.63;2.40;;;10.40;99.90;;;;;;5120352;28;20034;-71
2022/11/12 00:39:23;;;;;;;3.33;2.63;;;10.40;99.90;;;;;;5105884;28;20103;-71
2022/11/12 00:41:49;;;;;;;4.28;2.65;;;10.40;99.90;;;;;;5099648;28;20378;-71
2022/11/12 00:44:15;;;;;;;3.38;2.72;;;10.40;99.90;;;;;;5107041;28;20020;-71
2022/11/12 00:46:40;;;;;;;3.65;2.83;;;10.40;99.90;;;;;;5119962;28;20024;-71
2022/11/12 00:49:06;;;;;;;4.60;2.30;;;10.40;99.90;;;;;;5119858;28;20103;-71
2022/11/12 00:51:32;;;;;;;3.60;2.33;;;10.40;99.90;;;;;;5119958;28;20046;-71
2022/11/12 00:53:57;;;;;;;3.35;2.70;;;10.40;99.90;;;;;;5119723;28;20451;-71
2022/11/12 00:56:23;;;;;;;3.35;2.38;;;10.40;99.90;;;;;;5119837;28;20024;-71
2022/11/12 00:58:49;;;;;;;2.72;2.25;;;10.30;99.90;;;;;;5119977;28;20036;-71
2022/11/12 01:01:15;;;;;;;4.05;2.40;;;10.30;99.90;;;;;;5101109;28;20110;-71
2022/11/12 01:03:41;;;;;;;4.22;2.50;;;10.30;99.90;;;;;;5119957;28;20076;-71
2022/11/12 01:06:10;;;;;;;2.97;2.28;;;10.40;99.90;;;;;;5116236;28;20032;-71
2022/11/12 01:08:37;;;;;;;3.03;2.42;;;10.40;99.90;;;;;;5099594;28;20028;-71
2022/11/12 01:11:21;;;;;;;2.80;2.30;;;10.40;99.90;;;;;;5099173;28;20602;-71
2022/11/12 01:13:59;;;;;;;3.25;2.60;;;10.40;99.90;;;;;;5099179;28;20154;-71
2022/11/12 01:16:29;;;;;;;2.95;2.13;;;10.40;99.90;;;;;;5098658;28;20041;-71
2022/11/12 01:18:57;;;;;;;2.53;2.15;;;10.40;99.90;;;;;;5099200;28;20115;-71
2022/11/12 01:21:26;;;;;;;3.03;2.20;;;10.40;99.90;;;;;;5099140;28;20027;-71
2022/11/12 01:23:51;;;;;;;2.53;1.90;;;10.40;99.90;;;;;;5099132;28;20073;-71
2022/11/12 01:26:19;;;;;;;2.83;2.17;;;10.40;99.90;;;;;;5099025;28;20024;-71
2022/11/12 01:28:45;;;;;;;3.15;2.75;;;10.40;99.90;;;;;;5098743;28;20107;-71
2022/11/12 01:31:23;;;;;;;2.88;2.17;;;10.30;99.90;;;;;;5098708;28;20059;-71
2022/11/12 01:33:53;;;;;;;3.17;2.60;;;10.30;99.90;;;;;;5098765;28;20056;-71
2022/11/12 01:36:19;;;;;;;2.65;2.40;;;10.20;99.90;;;;;;5098541;28;20019;-70
2022/11/12 01:38:46;;;;;;;2.53;2.33;;;10.20;99.90;;;;;;5094227;28;20032;-69
2022/11/12 01:41:16;;;;;;;2.20;1.75;;;10.20;99.90;;;;;;5118991;28;20026;-70
2022/11/12 01:43:42;;;;;;;4.43;2.30;;;10.30;99.90;;;;;;5105117;28;20031;-71
2022/11/12 01:46:23;;;;;;;2.53;2.20;;;10.40;99.90;;;;;;5118869;28;20040;-70
2022/11/12 01:48:58;;;;;;;2.45;2.17;;;10.40;99.90;;;;;;5118634;28;20035;-71
2022/11/12 01:51:30;;;;;;;3.58;2.40;;;10.40;99.90;;;;;;5118857;28;20444;-71
2022/11/12 01:53:59;;;;;;;2.55;2.20;;;10.40;99.90;;;;;;5118482;28;20020;-71
2022/11/12 01:56:28;;;;;;;3.78;2.70;;;10.40;99.90;;;;;;5118427;28;20016;-71
2022/11/12 01:59:10;;;;;;;2.53;2.00;;;10.40;99.90;;;;;;5118578;28;20526;-71
2022/11/12 02:01:36;;;;;;;2.80;2.30;;;10.40;99.90;;;;;;5117172;28;20090;-71
2022/11/12 02:04:02;;;;;;;3.20;2.67;;;10.40;99.90;;;;;;5116816;28;20024;-71
2022/11/12 02:06:29;;;;;;;3.10;2.20;;;10.40;99.90;;;;;;5111555;28;20028;-71
2022/11/12 02:08:55;;;;;;;3.05;2.33;;;10.40;99.90;;;;;;5097120;28;20032;-70
2022/11/12 02:11:21;;;;;;;2.20;1.90;;;10.30;99.90;;;;;;5097259;28;20027;-71
2022/11/12 02:14:00;;;;;;;3.28;2.28;;;10.30;99.90;;;;;;5098056;28;20024;-70
2022/11/12 02:16:42;;;;;;;2.67;2.30;;;10.40;99.90;;;;;;5096907;28;20397;-71
2022/11/12 02:19:11;;;;;;;3.40;2.33;;;10.40;99.90;;;;;;5096022;28;20477;-71
2022/11/12 02:21:37;;;;;;;2.53;2.15;;;10.40;99.90;;;;;;5096161;28;20028;-71
2022/11/12 02:24:25;;;;;;;3.15;2.38;;;10.40;99.90;;;;;;5095904;28;20093;-71
2022/11/12 02:26:54;;;;;;;3.20;2.42;;;10.30;99.90;;;;;;5095653;28;20020;-70
2022/11/12 02:29:20;;;;;;;2.63;2.08;;;10.30;99.90;;;;;;5095575;28;20020;-71
2022/11/12 02:31:45;;;;;;;3.58;2.50;;;10.30;99.90;;;;;;5096251;28;20024;-71
2022/11/12 02:34:11;;;;;;;2.38;2.00;;;10.20;99.90;;;;;;5097559;28;20031;-71
2022/11/12 02:36:36;;;;;;;2.58;2.20;;;10.20;99.90;;;;;;5090845;28;20384;-71
2022/11/12 02:39:03;;;;;;;2.78;2.20;;;10.20;99.90;;;;;;5106672;28;20027;-71
2022/11/12 02:41:28;;;;;;;2.80;2.25;;;10.20;99.90;;;;;;5097626;28;20020;-71
2022/11/12 02:43:54;;;;;;;2.47;2.15;;;10.30;99.90;;;;;;5101141;28;20059;-71
2022/11/12 02:46:20;;;;;;;4.50;3.95;;;10.30;99.90;;;;;;5117650;28;20043;-71
2022/11/12 02:48:45;;;;;;;3.55;2.58;;;10.30;99.90;;;;;;5117654;28;20107;-70
2022/11/12 02:51:11;;;;;;;3.83;3.05;;;10.30;99.90;;;;;;5099626;28;20039;-71
2022/11/12 02:53:37;;;;;;;3.80;2.40;;;10.30;99.90;;;;;;5117703;28;20020;-71
2022/11/12 02:56:02;;;;;;;3.05;2.53;;;10.30;99.90;;;;;;5118019;28;20357;-71
2022/11/12 02:58:29;;;;;;;2.95;2.58;;;10.20;99.90;;;;;;5117616;28;20020;-71
2022/11/12 03:00:55;;;;;;;2.47;2.15;;;10.30;99.90;;;;;;5117787;28;20088;-71
2022/11/12 03:03:21;;;;;;;2.55;2.25;;;10.20;99.90;;;;;;5117483;28;20038;-71
2022/11/12 03:06:03;;;;;;;2.38;1.95;;;10.20;99.90;;;;;;5117376;28;20023;-71
2022/11/12 03:08:28;;;;;;;2.95;2.20;;;10.30;99.90;;;;;;5090808;28;20399;-71
2022/11/12 03:10:54;;;;;;;2.90;2.40;;;10.30;99.90;;;;;;5117605;28;20059;-71
2022/11/12 03:13:20;;;;;;;3.03;2.10;;;10.30;99.90;;;;;;5117867;28;20559;-71
2022/11/12 03:15:46;;;;;;;3.13;2.20;;;10.30;99.90;;;;;;5099213;28;20012;-71
2022/11/12 03:18:12;;;;;;;2.45;2.10;;;10.30;99.90;;;;;;5117344;28;20030;-71
2022/11/12 03:20:37;;;;;;;3.47;2.85;;;10.30;99.90;;;;;;5117525;28;20024;-71
2022/11/12 03:23:06;;;;;;;2.67;2.40;;;10.40;99.90;;;;;;5117704;28;20032;-71
2022/11/12 03:25:31;;;;;;;2.92;2.35;;;10.40;99.90;;;;;;5117570;28;20365;-71
2022/11/12 03:28:01;;;;;;;2.83;2.40;;;10.40;99.90;;;;;;5117680;28;20030;-71
2022/11/12 03:30:29;;;;;;;3.20;2.50;;;10.40;99.90;;;;;;5117257;28;20079;-70
2022/11/12 03:32:55;;;;;;;2.83;2.42;;;10.40;99.90;;;;;;5117432;28;20054;-71
2022/11/12 03:35:21;;;;;;;2.50;1.90;;;10.30;99.90;;;;;;5117454;28;20016;-71
2022/11/12 03:37:46;;;;;;;2.28;2.05;;;10.30;99.90;;;;;;5116775;28;20028;-70
2022/11/12 03:40:12;;;;;;;2.65;2.20;;;10.40;99.90;;;;;;5078778;28;20031;-71
2022/11/12 03:42:43;;;;;;;2.50;1.95;;;10.40;99.90;;;;;;5097146;28;20028;-71
2022/11/12 03:45:08;;;;;;;2.75;2.17;;;10.40;99.90;;;;;;5093287;28;20062;-71
2022/11/12 03:47:34;;;;;;;2.50;1.95;;;10.40;99.90;;;;;;5116428;28;20027;-70
2022/11/12 03:50:00;;;;;;;2.60;1.95;;;10.40;99.90;;;;;;5096963;28;20027;-70
2022/11/12 03:52:26;;;;;;;2.78;2.30;;;10.40;99.90;;;;;;5099042;28;20024;-70
2022/11/12 03:54:51;;;;;;;2.25;1.92;;;10.40;99.90;;;;;;5118209;28;20494;-70
2022/11/12 03:57:17;;;;;;;2.63;2.15;;;10.40;99.90;;;;;;5121222;28;20024;-70
2022/11/12 03:59:42;;;;;;;3.58;2.50;;;10.40;99.90;;;;;;5120953;28;20127;-70
2022/11/12 04:02:13;;;;;;;2.63;1.90;;;10.40;99.90;;;;;;5120913;28;20415;-71
2022/11/12 04:10:07;;;;;;;2.83;2.47;;;10.40;99.90;;;;;;5120925;28;20034;-71
2022/11/12 04:15:17;;;;;;;2.75;2.20;;;10.40;99.90;;;;;;5121067;28;20069;-71
2022/11/12 04:23:30;;;;;;;3.17;2.53;;;10.40;99.90;;;;;;5057945;28;20145;-71
2022/11/12 04:30:14;;;;;;;3.55;2.50;;;10.30;99.90;;;;;;5094709;28;20042;-71
2022/11/12 04:31:26;;;;;;;4.53;2.30;;;10.30;99.90;;;;;;5119988;28;20051;-71
2022/11/12 04:33:51;;;;;;;2.92;2.10;;;10.30;99.90;;;;;;5102113;28;20377;-71
2022/11/12 04:36:17;;;;;;;3.20;2.22;;;10.30;99.90;;;;;;5120458;28;20023;-71
2022/11/12 04:38:43;;;;;;;3.25;2.38;;;10.30;99.90;;;;;;5111701;28;20103;-71
2022/11/12 04:46:36;;;;;;;3.15;2.10;;;10.20;99.90;;;;;;5120121;28;20027;-71
2022/11/12 04:49:02;;;;;;;2.30;1.73;;;10.30;99.90;;;;;;5119928;28;20047;-71
2022/11/12 04:54:11;;;;;;;3.00;2.30;;;10.30;99.90;;;;;;5120384;28;20423;-70
2022/11/12 04:56:37;;;;;;;3.28;2.47;;;10.30;99.90;;;;;;5119939;28;20012;-70
2022/11/12 04:59:03;;;;;;;3.03;2.30;;;10.30;99.90;;;;;;5101702;28;20070;-71
2022/11/12 05:01:28;;;;;;;2.67;2.28;;;10.30;99.90;;;;;;5119402;28;20024;-71
2022/11/12 05:03:54;;;;;;;3.70;2.30;;;10.30;99.90;;;;;;5120102;28;20061;-71
2022/11/12 05:09:04;;;;;;;2.30;2.00;;;10.30;99.90;;;;;;5120008;28;20156;-71
2022/11/12 05:11:29;;;;;;;3.28;2.58;;;10.30;99.90;;;;;;5119592;28;20027;-71
2022/11/12 05:13:55;;;;;;;2.63;2.25;;;10.30;99.90;;;;;;5119748;28;20388;-70
2022/11/12 05:16:21;;;;;;;2.53;2.10;;;10.30;99.90;;;;;;5119151;28;20115;-71
2022/11/12 05:18:46;;;;;;;2.85;2.20;;;10.30;99.90;;;;;;5119671;28;20051;-70
2022/11/12 05:23:56;;;;;;;2.67;2.30;;;10.30;99.90;;;;;;5119472;28;20491;-71
2022/11/12 05:26:21;;;;;;;2.40;2.00;;;10.30;99.90;;;;;;5119473;28;20031;-71
2022/11/12 05:28:47;;;;;;;3.33;2.25;;;10.30;99.90;;;;;;5119402;28;20456;-71
2022/11/12 05:31:13;;;;;;;2.67;2.10;;;10.30;99.90;;;;;;5119004;28;20027;-71
2022/11/12 05:33:38;;;;;;;2.55;2.10;;;10.30;99.90;;;;;;5100920;28;20019;-71
2022/11/12 05:36:04;;;;;;;2.95;2.28;;;10.30;99.90;;;;;;5119310;28;20399;-71
2022/11/12 05:38:30;;;;;;;3.10;2.20;;;10.30;99.90;;;;;;5112395;28;20023;-71
2022/11/12 05:40:55;;;;;;;2.58;2.35;;;10.30;99.90;;;;;;5098220;28;20039;-71
2022/11/12 05:43:21;;;;;;;4.03;2.38;;;10.30;99.90;;;;;;5098585;28;20028;-71
2022/11/12 05:45:46;;;;;;;2.90;2.22;;;10.30;99.90;;;;;;5118734;28;20027;-71
2022/11/12 05:48:12;;;;;;;2.35;2.08;;;10.30;99.90;;;;;;5118707;28;20083;-70
2022/11/12 05:50:38;;;;;;;3.03;1.95;;;10.30;99.90;;;;;;5118869;28;20037;-70
2022/11/12 05:53:03;;;;;;;3.72;2.17;;;10.30;99.90;;;;;;5119038;28;20042;-70
2022/11/12 05:55:30;;;;;;;3.38;2.50;;;10.30;99.90;;;;;;5118861;28;20539;-71
2022/11/12 05:57:56;;;;;;;2.58;2.35;;;10.30;99.90;;;;;;5100594;28;20495;-71
2022/11/12 06:00:21;;;;;;;3.15;2.22;;;10.20;99.90;;;;;;5118901;28;20047;-71
2022/11/12 06:02:47;;;;;;;2.67;2.00;;;10.20;99.90;;;;;;5118475;28;20086;-71
2022/11/12 06:05:12;;;;;;;2.65;2.35;;;10.20;99.90;;;;;;5118597;28;20027;-71
2022/11/12 06:07:38;;;;;;;2.28;1.90;;;10.20;99.90;;;;;;5118634;28;20388;-71
2022/11/12 06:10:04;;;;;;;2.28;2.08;;;10.30;99.90;;;;;;5118404;28;20031;-71
2022/11/12 06:12:30;;;;;;;2.42;2.03;;;10.20;99.90;;;;;;5118751;28;20019;-71
2022/11/12 06:14:56;;;;;;;2.25;1.75;;;10.20;99.90;;;;;;5118185;28;20023;-71
2022/11/12 06:17:21;;;;;;;2.38;2.15;;;10.20;99.90;;;;;;5117593;28;20016;-71
2022/11/12 06:19:47;;;;;;;3.15;2.25;;;10.20;99.90;;;;;;5118303;28;20066;-70
2022/11/12 06:22:12;;;;;;;2.42;2.13;;;10.20;99.90;;;;;;5118415;28;20062;-70
2022/11/12 06:24:38;;;;;;;2.60;2.05;;;10.30;99.90;;;;;;5118319;28;20031;-70
2022/11/12 06:27:04;;;;;;;2.25;1.90;;;10.30;99.90;;;;;;5118313;28;20530;-71
2022/11/12 06:29:29;;;;;;;2.58;2.17;;;10.20;99.90;;;;;;5118025;28;20032;-71
2022/11/12 06:31:55;;;;;;;3.53;2.35;;;10.20;99.90;;;;;;5117949;28;20027;-70
2022/11/12 06:34:20;;;;;;;2.45;2.13;;;10.20;99.90;;;;;;5118067;28;20452;-70
2022/11/12 06:36:47;;;;;;;4.25;2.28;;;10.20;99.90;;;;;;5118232;28;20024;-70
2022/11/12 06:39:13;;;;;;;2.78;2.47;;;10.20;99.90;;;;;;5105114;28;20028;-71
2022/11/12 06:41:38;;;;;;;2.17;1.75;;;10.20;99.90;;;;;;5097915;28;20020;-71
2022/11/12 06:44:04;;;;;;;3.45;2.40;;;10.20;99.90;;;;;;5103448;28;20038;-71
2022/11/12 06:46:30;;;;;;;3.15;2.20;;;10.20;99.90;;;;;;5117994;28;20044;-70
2022/11/12 06:48:55;;;;;;;2.67;2.15;;;10.20;99.90;;;;;;5117617;28;20066;-70
2022/11/12 06:51:21;;;;;;;2.78;2.10;;;10.20;99.90;;;;;;5118020;28;20023;-71
2022/11/12 06:53:47;;;;;;;3.28;2.60;;;10.20;99.90;;;;;;5117897;28;20026;-71
2022/11/12 06:56:13;;;;;;;2.72;2.35;;;10.20;99.90;;;;;;5118007;28;20035;-71
2022/11/12 06:58:40;;;;;;;2.90;2.40;;;10.10;99.90;;;;;;5117706;28;20020;-71
2022/11/12 07:01:08;;;;;;;2.33;2.13;;;10.10;99.90;;;;;;5117555;28;20020;-71
2022/11/12 07:03:34;;;;;;;2.80;2.15;;;10.10;99.90;;;;;;5117724;28;20027;-71
2022/11/12 07:06:04;;;;;;;4.13;3.53;;;10.10;99.90;;;;;;5117775;28;20024;-71
2022/11/12 07:08:30;;;;;;;3.35;2.45;;;10.00;99.90;;;;;;5117931;28;20024;-71
2022/11/12 07:10:56;;;;;;;3.15;2.47;;;10.10;99.90;;;;;;5117653;28;20080;-71
2022/11/12 07:13:22;;;;;;;3.28;2.63;;;10.10;99.90;;;;;;5117916;28;20030;-71
2022/11/12 07:15:47;;;;;;;2.85;2.40;;;10.10;99.90;;;;;;5099243;28;20016;-71
2022/11/12 07:18:13;;;;;;;2.55;2.20;;;10.10;99.90;;;;;;5117646;28;20049;-71
2022/11/12 07:20:39;;;;;;;2.92;2.58;;;10.10;99.90;;;;;;5117726;28;20098;-71
2022/11/12 07:23:04;;;;;;;3.53;2.35;;;10.10;99.90;;;;;;5099483;28;20031;-71
2022/11/12 07:25:30;;;;;;;3.17;2.88;;;10.10;99.90;;;;;;5099362;28;20059;-71
2022/11/12 07:27:55;;;;;;;3.15;2.30;;;10.10;99.90;;;;;;5117688;28;20057;-71
2022/11/12 07:30:21;;;;;;;3.20;2.40;;;10.10;99.90;;;;;;5103062;28;20024;-71
2022/11/12 07:32:47;;;;;;;2.47;2.03;;;10.20;99.90;;;;;;5121276;28;20103;-71
2022/11/12 07:35:12;;;;;;;2.55;2.25;;;10.20;99.90;;;;;;5121685;28;20145;-71
2022/11/12 07:37:38;;;;;;;2.55;2.35;;;10.20;99.90;;;;;;5121484;28;20160;-71
2022/11/12 07:40:04;;;;;;;2.75;2.30;;;10.20;99.90;;;;;;5101453;28;20031;-71
2022/11/12 07:42:34;;;;;;;3.85;2.90;;;10.20;99.90;;;;;;5100943;28;20076;-71
2022/11/12 07:44:59;;;;;;;3.70;2.60;;;10.20;99.90;;;;;;5114559;28;20127;-70
2022/11/12 07:47:26;;;;;;;4.47;3.70;;;10.20;99.90;;;;;;5120933;28;20055;-71
2022/11/12 07:49:51;;;;;;;3.78;3.00;;;10.20;99.90;;;;;;5121366;28;20025;-71
2022/11/12 07:52:17;;;;;;;5.20;3.67;;;10.30;99.90;;;;;;5121389;28;20407;-71
2022/11/12 07:54:42;;;;;;;3.17;2.42;;;10.30;99.90;;;;;;5121204;28;20015;-71
2022/11/12 07:57:08;;;;;;;4.20;2.67;;;10.30;99.90;;;;;;5121113;28;20034;-71
2022/11/12 07:59:33;;;;;;;3.40;2.45;;;10.30;99.90;;;;;;5102885;28;20259;-70
2022/11/12 08:01:59;;;;;;;3.33;3.03;;;10.40;99.90;;;;;;5120769;28;20034;-70
2022/11/12 08:04:25;;;;;;;3.35;2.35;;;10.40;99.90;;;;;;5107669;28;20024;-71
2022/11/12 08:06:51;;;;;;;3.08;2.45;;;10.40;99.90;;;;;;5100557;28;20024;-70
2022/11/12 08:09:16;;;;;;;3.83;2.67;;;10.40;99.90;;;;;;5095297;28;20468;-71
2022/11/12 08:11:42;;;;;;;3.05;2.75;;;10.50;99.90;;;;;;5120779;28;20047;-71
2022/11/12 08:14:08;;;;;;;3.95;2.75;;;10.50;99.90;;;;;;5102563;28;20651;-70
2022/11/12 08:16:33;;;;;;;3.22;2.33;;;10.50;99.90;;;;;;5102068;28;20026;-70
2022/11/12 08:18:59;;;;;;;3.78;3.30;;;10.50;99.90;;;;;;5120790;28;20020;-70
2022/11/12 08:21:25;;;;;;;2.65;2.17;;;10.60;99.90;;;;;;5120584;28;20027;-70
2022/11/12 08:23:51;;;;;;;2.78;2.35;;;10.60;99.90;;;;;;5120706;28;20026;-70
2022/11/12 08:26:18;;;;;;;3.00;2.33;;;10.60;99.90;;;;;;5120470;28;20020;-71
2022/11/12 08:28:44;;;;;;;2.55;2.30;;;10.60;99.90;;;;;;5120444;28;20015;-70
2022/11/12 08:31:13;;;;;;;6.28;3.22;;;10.60;99.90;;;;;;5119993;28;20042;-71
2022/11/12 08:33:39;;;;;;;3.25;2.35;;;10.70;99.90;;;;;;5120467;28;20395;-70
2022/11/12 08:36:07;;;;;;;3.80;2.80;;;10.70;99.90;;;;;;5120377;28;20030;-70
2022/11/12 08:38:33;;;;;;;4.03;3.63;;;10.70;99.90;;;;;;5113217;28;20016;-71
2022/11/12 08:41:04;;;;;;;2.25;2.05;;;10.80;99.90;;;;;;5091900;28;20438;-70
2022/11/12 08:43:30;;;;;;;3.00;2.40;;;10.80;99.90;;;;;;5103489;28;20020;-70
2022/11/12 08:46:00;;;;;;;2.97;2.67;;;10.80;99.90;;;;;;5071890;28;20027;-71
2022/11/12 08:48:26;;;;;;;2.40;2.10;;;10.80;99.90;;;;;;5056854;28;20047;-71
2022/11/12 08:50:52;;;;;;;3.05;2.53;;;10.90;99.90;;;;;;5099605;28;20039;-70
2022/11/12 08:53:20;;;;;;;3.17;2.70;;;10.90;99.90;;;;;;5094126;28;20420;-70
2022/11/12 08:55:45;;;;;;;4.18;2.80;;;10.90;99.90;;;;;;5054756;28;20459;-70
2022/11/12 08:58:11;;;;;;;2.95;2.65;;;11.00;99.90;;;;;;5051673;28;20014;-71
2022/11/12 09:00:42;;;;;;;4.63;3.33;;;11.10;99.90;;;;;;5084185;28;20476;-71
2022/11/12 09:03:14;;;;;;;4.40;3.10;;;11.10;99.90;;;;;;5096132;28;20030;-70
2022/11/12 09:05:39;;;;;;;3.72;2.78;;;11.10;99.90;;;;;;5079553;28;20020;-70
2022/11/12 09:08:08;;;;;;;4.45;3.58;;;11.20;99.90;;;;;;5091959;28;20038;-70
2022/11/12 09:10:34;;;;;;;3.38;2.90;;;11.20;99.90;;;;;;5100174;28;20028;-70
2022/11/12 09:13:01;;;;;;;3.38;2.88;;;11.20;99.90;;;;;;5100092;28;20016;-70
2022/11/12 09:15:28;;;;;;;3.83;2.75;;;11.30;99.90;;;;;;5090560;28;20050;-70
2022/11/12 09:17:56;;;;;;;2.90;2.60;;;11.30;99.90;;;;;;5082233;28;20016;-70
2022/11/12 09:20:22;;;;;;;3.22;2.65;;;11.40;99.90;;;;;;5102048;28;20039;-70
2022/11/12 09:22:48;;;;;;;3.00;2.70;;;11.40;99.90;;;;;;5075914;28;20533;-70
2022/11/12 09:25:14;;;;;;;5.55;3.97;;;11.40;99.90;;;;;;5074357;28;20062;-70
2022/11/12 09:27:39;;;;;;;6.70;3.83;;;11.50;99.90;;;;;;5090487;28;20050;-70
2022/11/12 09:30:06;;;;;;;3.75;3.00;;;11.40;99.90;;;;;;5098871;28;20103;-70
2022/11/12 09:32:31;;;;;;;4.88;3.40;;;11.50;99.90;;;;;;5088762;28;20014;-71
2022/11/12 09:34:57;;;;;;;4.07;3.13;;;11.50;99.90;;;;;;5063556;28;20047;-70
2022/11/12 09:37:23;;;;;;;7.15;4.82;;;11.50;99.90;;;;;;5075418;28;20016;-71
2022/11/12 09:39:48;;;;;;;5.68;3.92;;;11.60;99.90;;;;;;5060259;28;20029;-71
2022/11/12 09:42:19;;;;;;;4.53;3.80;;;11.60;99.90;;;;;;5079648;28;20020;-70
2022/11/12 09:45:01;;;;;;;4.20;3.15;;;11.60;99.90;;;;;;5064548;28;20034;-70
2022/11/12 09:47:44;;;;;;;16.05;8.90;;;11.70;99.90;;;;;;5074869;28;20020;-70
2022/11/12 09:50:30;;;;;;;6.28;4.22;;;11.70;99.90;;;;;;5073137;28;20061;-70
2022/11/12 09:53:15;;;;;;;14.52;8.25;;;11.80;99.90;;;;;;5079122;28;20028;-70
2022/11/12 09:55:47;;;;;;;7.38;4.90;;;11.80;99.90;;;;;;5070939;28;20139;-70
2022/11/12 09:58:15;;;;;;;5.13;4.20;;;11.90;99.90;;;;;;5074186;28;20488;-69
2022/11/12 10:00:56;;;;;;;7.22;4.43;;;11.90;99.90;;;;;;5074832;28;20024;-70
2022/11/12 10:03:48;;;;;;;6.45;3.90;;;11.90;99.90;;;;;;5100924;28;20023;-70
2022/11/12 10:06:19;;;;;;;6.38;4.03;;;12.00;99.90;;;;;;5075171;28;20385;-69
2022/11/12 10:09:19;;;;;;;3.90;3.10;;;12.10;99.90;;;;;;5107947;28;20024;-71
2022/11/12 10:16:41;;;;;;;5.47;4.18;;;12.10;99.90;;;;;;5112208;28;20552;-73
2022/11/12 10:18:08;;;;;;;;;;;12.10;99.90;;;;;;5115902;28;20028;-74
2022/11/12 10:20:48;;;;;;;4.57;3.50;;;12.10;99.90;;;;;;5106700;28;20334;-74
2022/11/12 10:23:46;;;;;;;3.70;3.28;;;12.20;99.90;;;;;;5093356;28;20020;-74
2022/11/12 10:26:14;;;;;;;2.53;2.33;;;12.20;99.90;;;;;;5117929;28;20031;-74
2022/11/12 10:28:53;;;;;;;3.78;3.05;;;12.20;99.90;;;;;;5100018;28;20050;-74
2022/11/12 10:31:20;;;;;;;3.35;3.05;;;12.30;99.90;;;;;;5097768;28;20032;-74
2022/11/12 10:33:46;;;;;;;6.75;5.60;;;12.30;99.90;;;;;;5116096;28;20020;-74
2022/11/12 10:36:24;;;;;;;4.97;3.78;;;12.40;99.90;;;;;;5116874;28;20031;-74
2022/11/12 10:38:53;;;;;;;4.00;3.35;;;12.40;99.90;;;;;;5107935;28;20092;-74
2022/11/12 10:41:26;;;;;;;6.20;4.72;;;12.50;99.90;;;;;;5117332;28;20046;-73
2022/11/12 10:44:00;;;;;;;4.45;3.97;;;12.50;99.90;;;;;;5103870;28;20429;-74
2022/11/12 10:46:35;;;;;;;3.88;3.47;;;12.50;99.90;;;;;;5117607;28;20031;-73
2022/11/12 10:49:21;;;;;;;4.28;3.55;;;12.50;99.90;;;;;;5117616;28;20059;-73
2022/11/12 10:51:55;;;;;;;4.38;3.40;;;12.50;99.90;;;;;;5117821;28;20042;-74
2022/11/12 10:54:37;;;;;;;4.78;3.80;;;12.60;99.90;;;;;;5117837;28;20019;-74
2022/11/12 10:57:24;;;;;;;6.13;4.25;;;12.60;99.90;;;;;;5099437;28;20024;-74
2022/11/12 11:00:13;;;;;;;3.85;3.08;;;12.70;99.90;;;;;;5117502;28;20032;-74
2022/11/12 11:02:52;;;;;;;3.78;2.80;;;12.70;99.90;;;;;;5048025;28;20028;-74
2022/11/12 11:05:48;;;;;;;4.20;3.60;;;12.80;99.90;;;;;;5097316;28;20069;-74
2022/11/12 11:08:13;;;;;;;3.75;3.35;;;12.90;99.90;;;;;;5097238;28;20063;-74
2022/11/12 11:10:39;;;;;;;4.32;3.17;;;13.00;99.90;;;;;;5097285;28;20064;-74
2022/11/12 11:13:19;;;;;;;4.88;3.88;;;13.00;99.90;;;;;;5089501;28;20483;-74
2022/11/12 11:16:05;;;;;;;4.80;4.00;;;13.00;99.90;;;;;;5098957;28;20102;-73
2022/11/12 11:18:34;;;;;;;3.78;3.20;;;13.00;99.90;;;;;;5117731;28;20020;-74
2022/11/12 11:21:38;;;;;;;4.25;3.78;;;13.10;99.90;;;;;;5117444;28;20031;-74
2022/11/12 11:24:04;;;;;;;;;;;13.20;99.90;;;;;;5099537;28;20030;-74
2022/11/12 11:27:23;;;;;;;4.70;3.67;;;13.20;99.90;;;;;;5099563;28;19935;-74
2022/11/12 11:29:57;;;;;;;5.93;3.65;;;13.30;99.90;;;;;;5015015;28;20040;-74
2022/11/12 11:32:54;;;;;;;5.15;4.00;;;13.30;99.90;;;;;;4998318;28;20026;-74
2022/11/12 11:35:22;;;;;;;5.05;4.40;;;13.40;99.90;;;;;;5100188;28;20043;-74
2022/11/12 11:38:12;;;;;;;4.00;3.42;;;13.40;99.90;;;;;;5116577;28;20022;-74
2022/11/12 11:40:42;;;;;;;4.80;3.90;;;13.50;99.90;;;;;;5083427;28;20028;-74
2022/11/12 11:43:37;;;;;;;6.53;4.30;;;13.60;99.90;;;;;;5105630;28;20032;-74
2022/11/12 11:46:42;;;;;;;6.97;3.88;;;13.70;99.90;;;;;;5105249;28;20028;-74
2022/11/12 11:49:38;;;;;;;5.57;4.28;;;13.70;99.90;;;;;;5117102;28;20050;-74
2022/11/12 11:52:06;;;;;;;6.90;4.93;;;13.80;99.90;;;;;;5098839;28;20030;-74
2022/11/12 11:54:47;;;;;;;5.53;4.63;;;13.80;99.90;;;;;;5117281;28;20073;-74
2022/11/12 11:57:22;;;;;;;6.07;4.70;;;13.80;99.90;;;;;;5117010;28;20459;-74
2022/11/12 12:00:19;;;;;;;4.90;3.97;;;13.80;99.90;;;;;;5116853;28;20108;-74
2022/11/12 12:03:04;;;;;;;4.45;3.38;;;13.90;99.90;;;;;;5116935;28;20020;-74
2022/11/12 12:05:57;;;;;;;5.05;3.47;;;13.90;99.90;;;;;;5117333;28;20077;-74
2022/11/12 12:08:47;;;;;;;6.00;4.18;;;13.90;99.90;;;;;;5098753;28;20039;-74
2022/11/12 12:11:25;;;;;;;5.18;3.92;;;13.90;99.90;;;;;;5098560;28;20091;-74
2022/11/12 12:14:18;;;;;;;4.25;3.25;;;14.00;99.90;;;;;;5097666;28;20052;-74
2022/11/12 12:16:51;;;;;;;4.85;3.83;;;14.10;99.90;;;;;;5099092;28;20020;-74
2022/11/12 12:19:31;;;;;;;4.47;3.30;;;14.00;99.90;;;;;;5097813;28;20380;-74
2022/11/12 12:22:00;;;;;;;6.63;4.30;;;14.00;99.90;;;;;;5120847;28;20397;-74
2022/11/12 12:24:28;;;;;;;6.75;4.93;;;14.10;99.90;;;;;;5102124;28;20038;-74
2022/11/12 12:27:07;;;;;;;5.80;3.88;;;14.20;99.90;;;;;;5120529;28;20024;-74
2022/11/12 12:29:51;;;;;;;4.38;3.53;;;14.20;99.90;;;;;;5120389;28;20027;-74
2022/11/12 12:32:29;;;;;;;6.32;4.30;;;14.20;99.90;;;;;;5120302;28;20027;-74
2022/11/12 12:35:02;;;;;;;4.35;3.85;;;14.20;99.90;;;;;;5101994;28;20027;-74
2022/11/12 12:37:38;;;;;;;6.53;4.75;;;14.20;99.90;;;;;;5120228;28;20022;-74
2022/11/12 12:40:17;;;;;;;5.55;4.53;;;14.20;99.90;;;;;;5100337;28;20035;-74
2022/11/12 12:42:54;;;;;;;5.43;4.32;;;14.30;99.90;;;;;;5099652;28;20024;-74
2022/11/12 12:45:37;;;;;;;4.13;3.50;;;14.30;99.90;;;;;;5114374;28;20035;-75
2022/11/12 12:48:06;;;;;;;5.18;3.83;;;14.40;99.90;;;;;;5120158;28;20098;-74
2022/11/12 12:50:37;;;;;;;4.82;3.53;;;14.40;99.90;;;;;;5101730;28;20540;-74
2022/11/12 12:53:15;;;;;;;5.35;3.40;;;14.40;99.90;;;;;;5120172;28;20016;-74
2022/11/12 12:55:47;;;;;;;6.80;4.03;;;14.50;99.90;;;;;;5120178;28;20451;-74
2022/11/12 12:58:29;;;;;;;5.68;4.15;;;14.50;99.90;;;;;;5119960;28;20027;-74
2022/11/12 13:01:11;;;;;;;7.95;3.78;;;14.50;99.90;;;;;;5119749;28;20028;-74
2022/11/12 13:03:42;;;;;;;5.38;3.72;;;14.50;99.90;;;;;;5119804;28;20480;-74
2022/11/12 13:06:23;;;;;;;4.45;3.00;;;14.60;99.90;;;;;;5120012;28;20035;-74
2022/11/12 13:09:16;;;;;;;7.63;4.07;;;14.60;99.90;;;;;;5120042;28;20023;-74
2022/11/12 13:14:35;;;;;;;5.45;4.45;;;14.70;99.90;;;;;;5119860;28;20225;-74
2022/11/12 13:17:09;;;;;;;5.80;4.00;;;14.70;99.90;;;;;;5119367;28;20020;-73
2022/11/12 13:19:51;;;;;;;4.63;3.60;;;14.70;99.90;;;;;;5119471;28;20032;-74
2022/11/12 13:22:17;;;;;;;4.97;3.20;;;14.70;99.90;;;;;;5119631;28;20121;-74
2022/11/12 13:25:23;;;;;;;6.78;3.90;;;14.80;99.90;;;;;;5119246;28;20024;-74
2022/11/12 13:27:49;;;;;;;6.60;4.38;;;14.80;99.90;;;;;;5119060;28;20212;-74
2022/11/12 13:30:19;;;;;;;7.07;3.97;;;14.90;99.90;;;;;;5100916;28;20138;-74
2022/11/12 13:32:48;;;;;;;4.32;3.90;;;14.90;99.90;;;;;;5118893;28;20026;-73
2022/11/12 13:35:30;;;;;;;4.90;3.70;;;14.90;99.90;;;;;;5119296;28;20019;-72
2022/11/12 13:37:58;;;;;;;4.97;3.70;;;14.90;99.90;;;;;;5098848;28;20027;-73
2022/11/12 13:40:36;;;;;;;5.38;3.88;;;14.90;99.90;;;;;;5098851;28;20066;-74